Terminal Aerodrome Forecast
Issued by NWS

Current Version | Previous Version | Text Only | Print | Product List | Glossary Off
Versions: 1 2 3 4 5 6 7 8 9 10 11 12 13 14 15 16 17 18 19 20 21 22 23 24 25 26

000
FTUS41 KILN 042000 AAA
TAFLUK
TAF AMD
KLUK 042020Z 0420/0518 34006KT 3SM -SN BKN019 OVC026
      TEMPO 0420/0421 2SM -SN BR OVC011
     FM042100 34010KT 1 1/2SM -SN OVC011
     FM050100 35011KT 1SM -SN OVC008
     FM050400 35009KT 5SM -SN BR OVC015
     FM050800 36008KT P6SM SCT025 OVC100
     FM051200 32010KT P6SM BKN028=

USA.gov is the U.S. government's official web portal to all federal, state and local government web resources and services.